Time;durP1;ratioP1;P1;durP2;ratioP2;P2;SDS_P1;SDS_P2;PMS_P1;PMS_P2;Temp;Humidity;BMP_temperature;BMP_pressure;BME280_temperature;BME280_humidity;BME280_pressure;Samples;Min_cycle;Max_cycle;Signal;HPM_P1;HPM_P2
2021/08/21 00:00:50;;;;;;;12.82;9.27;;;16.40;99.90;;;;;;5052608;28;20044;-81
2021/08/21 00:03:15;;;;;;;14.10;9.55;;;16.30;99.90;;;;;;5069025;28;20032;-80
2021/08/21 00:05:41;;;;;;;11.80;8.38;;;16.30;99.90;;;;;;5052194;28;20119;-80
2021/08/21 00:08:07;;;;;;;10.65;7.57;;;16.20;99.90;;;;;;5065580;28;20033;-80
2021/08/21 00:10:33;;;;;;;12.93;8.23;;;16.10;99.90;;;;;;5048597;28;20037;-80
2021/08/21 00:13:00;;;;;;;10.95;8.40;;;16.10;99.90;;;;;;5065567;28;20076;-80
2021/08/21 00:15:26;;;;;;;11.43;8.07;;;16.00;99.90;;;;;;5053622;28;20032;-80
2021/08/21 00:17:52;;;;;;;11.50;8.90;;;16.00;99.90;;;;;;5049568;27;20052;-80
2021/08/21 00:20:19;;;;;;;13.68;9.43;;;15.90;99.90;;;;;;5064230;28;20397;-81
2021/08/21 00:22:45;;;;;;;11.85;8.52;;;15.80;99.90;;;;;;5069867;28;20493;-80
2021/08/21 00:25:12;;;;;;;13.68;8.10;;;15.80;99.90;;;;;;5067177;28;20119;-80
2021/08/21 00:27:38;;;;;;;10.27;6.90;;;15.70;99.90;;;;;;5052152;28;20040;-80
2021/08/21 00:30:04;;;;;;;13.73;7.50;;;15.60;99.90;;;;;;5053233;28;20061;-80
2021/08/21 00:32:31;;;;;;;12.18;7.95;;;15.60;99.90;;;;;;5032652;28;20033;-81
2021/08/21 00:34:57;;;;;;;8.52;7.13;;;15.50;99.90;;;;;;5050829;28;20809;-81
2021/08/21 00:37:22;;;;;;;10.15;7.20;;;15.40;99.90;;;;;;5062894;28;20123;-81
2021/08/21 00:39:48;;;;;;;9.98;7.70;;;15.40;99.90;;;;;;5048476;28;20032;-80
2021/08/21 00:42:13;;;;;;;8.68;7.25;;;15.30;99.90;;;;;;5069991;28;20112;-81
2021/08/21 00:44:40;;;;;;;9.55;7.63;;;15.20;99.90;;;;;;5051149;28;20043;-81
2021/08/21 00:47:10;;;;;;;10.60;7.57;;;15.10;99.90;;;;;;5069928;28;20037;-81
2021/08/21 00:49:37;;;;;;;9.13;7.18;;;15.00;99.90;;;;;;5069199;28;20047;-81
2021/08/21 00:52:08;;;;;;;8.82;7.47;;;15.00;99.90;;;;;;5069789;28;20032;-81
2021/08/21 00:54:34;;;;;;;11.00;7.30;;;14.80;99.90;;;;;;5048309;28;20033;-81
2021/08/21 00:57:03;;;;;;;11.40;7.28;;;14.80;99.90;;;;;;5069093;28;20538;-81
2021/08/21 00:59:34;;;;;;;12.95;7.68;;;14.70;99.90;;;;;;5034787;28;20029;-81
2021/08/21 01:02:01;;;;;;;9.27;6.70;;;14.60;99.90;;;;;;5049518;28;20086;-81
2021/08/21 01:04:29;;;;;;;10.45;7.25;;;14.50;99.90;;;;;;5065771;28;20037;-81
2021/08/21 01:06:55;;;;;;;15.02;9.48;;;14.50;99.90;;;;;;5063402;28;20071;-81
2021/08/21 01:09:21;;;;;;;9.80;8.23;;;14.50;99.90;;;;;;5043719;28;20064;-80
2021/08/21 01:11:47;;;;;;;17.00;10.85;;;14.40;99.90;;;;;;5069556;28;20519;-81
2021/08/21 01:14:12;;;;;;;17.27;9.18;;;14.40;99.90;;;;;;5056236;28;20077;-81
2021/08/21 01:16:38;;;;;;;16.73;10.32;;;14.40;99.90;;;;;;5067371;27;20064;-81
2021/08/21 01:19:05;;;;;;;13.98;8.82;;;14.40;99.90;;;;;;5059133;28;20401;-81
2021/08/21 01:21:31;;;;;;;15.32;9.50;;;14.40;99.90;;;;;;5067352;28;20048;-81
2021/08/21 01:23:56;;;;;;;14.25;10.10;;;14.40;99.90;;;;;;5055567;27;20032;-81
2021/08/21 01:26:22;;;;;;;15.73;10.02;;;14.40;99.90;;;;;;5062599;28;20060;-80
2021/08/21 01:28:47;;;;;;;14.80;9.70;;;14.40;99.90;;;;;;5058181;28;20508;-80
2021/08/21 01:31:13;;;;;;;11.45;9.00;;;14.40;99.90;;;;;;5055306;28;20033;-80
2021/08/21 01:33:39;;;;;;;11.18;8.40;;;14.40;99.90;;;;;;5069482;28;20029;-80
2021/08/21 01:36:05;;;;;;;13.98;9.02;;;14.40;99.90;;;;;;5054847;28;20040;-80
2021/08/21 01:38:31;;;;;;;15.52;9.80;;;14.40;99.90;;;;;;5069231;28;20427;-80
2021/08/21 01:40:57;;;;;;;66.40;15.63;;;14.40;99.90;;;;;;5072780;28;20043;-80
2021/08/21 01:43:23;;;;;;;69.63;15.85;;;14.40;99.90;;;;;;5067050;28;20100;-81
2021/08/21 01:45:49;;;;;;;62.55;15.32;;;14.40;99.90;;;;;;5043274;28;20032;-81
2021/08/21 01:48:16;;;;;;;26.33;12.07;;;14.40;99.90;;;;;;5066523;28;20040;-81
2021/08/21 01:50:42;;;;;;;49.55;13.48;;;14.30;99.90;;;;;;5057703;28;20499;-81
2021/08/21 01:53:14;;;;;;;37.22;11.65;;;14.30;99.90;;;;;;5067562;28;20037;-80
2021/08/21 01:55:41;;;;;;;;;;;14.30;99.90;;;;;;5056347;28;20047;-81
2021/08/21 01:58:06;;;;;;;21.73;11.35;;;14.20;99.90;;;;;;5050937;28;19916;-81
2021/08/21 02:00:32;;;;;;;29.42;12.65;;;14.10;99.90;;;;;;5054613;28;20024;-81
2021/08/21 02:02:58;;;;;;;36.05;12.40;;;14.10;99.90;;;;;;5068962;28;20041;-81
2021/08/21 02:05:24;;;;;;;32.97;11.07;;;14.00;99.90;;;;;;5060158;28;20056;-81
2021/08/21 02:07:51;;;;;;;27.80;10.77;;;14.00;99.90;;;;;;5068392;28;20021;-81
2021/08/21 02:10:21;;;;;;;33.70;11.13;;;13.90;99.90;;;;;;5034496;28;20037;-80
2021/08/21 02:12:47;;;;;;;22.13;9.95;;;13.90;99.90;;;;;;5034828;28;20033;-81
2021/08/21 02:15:15;;;;;;;20.83;9.63;;;13.90;99.90;;;;;;5056974;28;20116;-80
2021/08/21 02:17:42;;;;;;;25.42;10.82;;;13.90;99.90;;;;;;5051856;27;20048;-80
2021/08/21 02:20:12;;;;;;;20.50;10.57;;;13.90;99.90;;;;;;5052934;28;20032;-80
2021/08/21 02:22:43;;;;;;;14.43;8.60;;;13.80;99.90;;;;;;5052340;28;20081;-80
2021/08/21 02:25:12;;;;;;;17.67;9.00;;;13.90;99.90;;;;;;5053200;28;20043;-80
2021/08/21 02:27:41;;;;;;;22.10;9.93;;;13.80;99.90;;;;;;5053099;28;20029;-79
2021/08/21 02:30:07;;;;;;;19.98;8.43;;;13.80;99.90;;;;;;5051619;28;20485;-78
2021/08/21 02:32:33;;;;;;;16.90;8.57;;;13.70;99.90;;;;;;5053037;28;20047;-79
2021/08/21 02:34:59;;;;;;;23.33;8.95;;;13.70;99.90;;;;;;5063617;28;20036;-79
2021/08/21 02:37:26;;;;;;;10.45;8.40;;;13.60;99.90;;;;;;5071639;28;20040;-78
2021/08/21 02:39:52;;;;;;;33.28;9.68;;;13.50;99.90;;;;;;5055017;28;20059;-79
2021/08/21 02:42:18;;;;;;;24.40;11.63;;;13.50;99.90;;;;;;5034043;28;20120;-78
2021/08/21 02:44:44;;;;;;;25.55;11.50;;;13.50;99.90;;;;;;5034805;28;20136;-79
2021/08/21 02:47:09;;;;;;;20.67;10.18;;;13.50;99.90;;;;;;5063011;28;20044;-78
2021/08/21 02:49:35;;;;;;;24.10;12.10;;;13.50;99.90;;;;;;5050525;28;20614;-79
2021/08/21 02:52:02;;;;;;;36.33;11.30;;;13.60;99.90;;;;;;5053733;28;20037;-78
2021/08/21 02:54:29;;;;;;;21.13;12.23;;;13.50;99.90;;;;;;5037486;28;20394;-79
2021/08/21 02:56:54;;;;;;;21.90;10.98;;;13.50;99.90;;;;;;5069575;28;20056;-78
2021/08/21 02:59:20;;;;;;;17.73;10.27;;;13.50;99.90;;;;;;5070311;28;20549;-78
2021/08/21 03:01:46;;;;;;;19.75;10.27;;;13.50;99.90;;;;;;5053538;28;20085;-78
2021/08/21 03:04:12;;;;;;;27.65;11.25;;;13.40;99.90;;;;;;5057214;28;20037;-78
2021/08/21 03:06:38;;;;;;;19.27;10.63;;;13.30;99.90;;;;;;5069528;28;20043;-78
2021/08/21 03:09:04;;;;;;;18.45;9.75;;;13.40;99.90;;;;;;5041648;28;20033;-78
2021/08/21 03:11:29;;;;;;;20.52;10.00;;;13.40;99.90;;;;;;5051181;28;20041;-78
2021/08/21 03:13:55;;;;;;;15.25;9.35;;;13.50;99.90;;;;;;5054037;28;20029;-78
2021/08/21 03:16:21;;;;;;;15.00;9.32;;;13.50;99.90;;;;;;5037882;28;20089;-78
2021/08/21 03:18:47;;;;;;;24.77;8.75;;;13.50;99.90;;;;;;5059650;27;20364;-79
2021/08/21 03:21:14;;;;;;;29.58;9.50;;;13.40;99.90;;;;;;5051244;28;20108;-78
2021/08/21 03:23:40;;;;;;;22.90;9.82;;;13.40;99.90;;;;;;5035084;28;20039;-79
2021/08/21 03:26:06;;;;;;;38.72;10.13;;;13.40;99.90;;;;;;5055388;28;20390;-79
2021/08/21 03:28:32;;;;;;;27.10;9.13;;;13.30;99.90;;;;;;5063756;28;20036;-78
2021/08/21 03:30:58;;;;;;;23.40;10.15;;;13.30;99.90;;;;;;5052679;28;20041;-79
2021/08/21 03:33:23;;;;;;;19.02;9.23;;;13.30;99.90;;;;;;5049150;28;20029;-78
2021/08/21 03:35:49;;;;;;;30.35;11.90;;;13.20;99.90;;;;;;5070865;28;20052;-78
2021/08/21 03:38:16;;;;;;;18.67;9.75;;;13.20;99.90;;;;;;5070204;28;20060;-79
2021/08/21 03:40:41;;;;;;;36.90;11.20;;;13.20;99.90;;;;;;5069820;28;20032;-79
2021/08/21 03:43:07;;;;;;;51.25;12.55;;;13.20;99.90;;;;;;5047044;28;20040;-79
2021/08/21 03:45:33;;;;;;;31.17;10.68;;;13.20;99.90;;;;;;5068933;28;20119;-79
2021/08/21 03:47:59;;;;;;;45.88;12.65;;;13.20;99.90;;;;;;5053770;28;20033;-79
2021/08/21 03:50:24;;;;;;;56.95;12.18;;;13.20;99.90;;;;;;5069169;28;20060;-79
2021/08/21 03:52:50;;;;;;;24.02;11.40;;;13.20;99.90;;;;;;5070742;28;20035;-78
2021/08/21 03:55:16;;;;;;;31.77;10.82;;;13.20;99.90;;;;;;5070624;28;20439;-79
2021/08/21 03:57:41;;;;;;;25.05;11.27;;;13.30;99.90;;;;;;5052901;28;20454;-79
2021/08/21 04:00:08;;;;;;;24.52;11.77;;;13.30;99.90;;;;;;5070035;28;20111;-79
2021/08/21 04:02:33;;;;;;;28.73;12.93;;;13.40;99.90;;;;;;5069706;28;20032;-79
2021/08/21 04:04:59;;;;;;;21.30;11.43;;;13.40;99.90;;;;;;5070473;28;20033;-79
2021/08/21 04:07:25;;;;;;;57.05;12.93;;;13.40;99.90;;;;;;5069677;28;20230;-78
2021/08/21 04:09:50;;;;;;;35.70;12.85;;;13.40;99.90;;;;;;5052662;28;20142;-79
2021/08/21 04:12:18;;;;;;;22.60;12.07;;;13.50;99.90;;;;;;5070389;28;20485;-79
2021/08/21 04:14:44;;;;;;;24.80;13.00;;;13.60;99.90;;;;;;5052538;28;20037;-79
2021/08/21 04:17:10;;;;;;;49.17;14.20;;;13.60;99.90;;;;;;5070281;27;20045;-79
2021/08/21 04:19:36;;;;;;;29.23;12.48;;;13.70;99.90;;;;;;5070432;28;20508;-79
2021/08/21 04:22:01;;;;;;;24.60;12.25;;;13.70;99.90;;;;;;5052425;28;20032;-79
2021/08/21 04:24:27;;;;;;;39.95;14.07;;;13.70;99.90;;;;;;5052277;28;20028;-79
2021/08/21 04:26:53;;;;;;;24.45;12.70;;;13.80;99.90;;;;;;5070248;28;20440;-78
2021/08/21 04:29:18;;;;;;;24.88;12.68;;;13.80;99.90;;;;;;5070199;28;20135;-79
2021/08/21 04:31:44;;;;;;;25.27;12.45;;;13.80;99.90;;;;;;5052065;28;20055;-78
2021/08/21 04:34:10;;;;;;;20.08;11.20;;;13.80;99.90;;;;;;5052210;28;20029;-78
2021/08/21 04:36:35;;;;;;;22.77;12.00;;;13.80;99.90;;;;;;5069969;28;20072;-78
2021/08/21 04:39:02;;;;;;;19.13;10.52;;;13.90;99.90;;;;;;5070014;28;20459;-78
2021/08/21 04:41:27;;;;;;;22.70;11.88;;;13.90;99.90;;;;;;5070037;28;20100;-79
2021/08/21 04:43:53;;;;;;;25.52;13.80;;;13.90;99.90;;;;;;5052235;28;20469;-79
2021/08/21 04:46:18;;;;;;;22.65;12.30;;;14.00;99.90;;;;;;5069858;28;20061;-78
2021/08/21 04:48:44;;;;;;;21.30;12.48;;;14.00;99.90;;;;;;5051939;28;20139;-78
2021/08/21 04:51:10;;;;;;;23.73;13.85;;;14.10;99.90;;;;;;5052011;28;20046;-79
2021/08/21 04:53:35;;;;;;;26.30;12.75;;;14.10;99.90;;;;;;5069323;28;20077;-79
2021/08/21 04:56:01;;;;;;;25.95;14.18;;;14.10;99.90;;;;;;5051711;28;20405;-78
2021/08/21 04:58:27;;;;;;;27.73;14.25;;;14.20;99.90;;;;;;5069726;28;20036;-78
2021/08/21 05:00:52;;;;;;;28.33;13.07;;;14.30;99.90;;;;;;5069689;28;20036;-78
2021/08/21 05:03:18;;;;;;;25.70;13.60;;;14.30;99.90;;;;;;5050484;28;20529;-78
2021/08/21 05:05:44;;;;;;;25.73;14.50;;;14.40;99.90;;;;;;5069566;28;20081;-78
2021/08/21 05:08:10;;;;;;;27.70;14.88;;;14.40;99.90;;;;;;5069591;28;20039;-78
2021/08/21 05:10:36;;;;;;;26.00;13.80;;;14.50;99.90;;;;;;5067025;28;20058;-79
2021/08/21 05:13:01;;;;;;;27.48;16.10;;;14.50;99.90;;;;;;5067173;28;20029;-79
2021/08/21 05:15:27;;;;;;;24.23;14.35;;;14.60;99.90;;;;;;5064952;28;20517;-80
2021/08/21 05:17:55;;;;;;;23.13;14.50;;;14.60;99.90;;;;;;5064443;28;20060;-80
2021/08/21 05:20:30;;;;;;;20.48;13.82;;;14.70;99.90;;;;;;5061912;28;20139;-79
2021/08/21 05:23:04;;;;;;;24.95;14.80;;;14.70;99.90;;;;;;5064614;28;20040;-80
2021/08/21 05:25:53;;;;;;;22.27;11.88;;;14.80;99.90;;;;;;5045681;28;20183;-81
2021/08/21 05:28:19;;;;;;;29.75;14.52;;;14.80;99.90;;;;;;5062672;28;20029;-80
2021/08/21 05:30:45;;;;;;;20.08;12.23;;;14.90;99.90;;;;;;5045401;28;20035;-80
2021/08/21 05:33:16;;;;;;;21.23;13.82;;;15.00;99.90;;;;;;5065198;28;20058;-80
2021/08/21 05:35:43;;;;;;;26.50;15.00;;;15.20;99.90;;;;;;5047015;28;20041;-80
2021/08/21 05:38:09;;;;;;;27.80;17.65;;;15.20;99.90;;;;;;5063694;28;20433;-80
2021/08/21 05:40:36;;;;;;;31.48;18.17;;;15.30;99.90;;;;;;5066796;28;20108;-80
2021/08/21 05:43:02;;;;;;;30.25;18.55;;;15.40;99.90;;;;;;5048780;28;20033;-80
2021/08/21 05:45:29;;;;;;;33.55;18.45;;;15.40;99.90;;;;;;5047332;28;20035;-80
2021/08/21 05:47:55;;;;;;;25.67;16.95;;;15.50;99.90;;;;;;5066260;28;20036;-80
2021/08/21 05:50:24;;;;;;;26.15;17.23;;;15.50;99.90;;;;;;5046078;28;20040;-79
2021/08/21 05:52:50;;;;;;;23.55;16.52;;;15.60;99.90;;;;;;5063283;28;20033;-80
2021/08/21 05:55:17;;;;;;;27.65;17.90;;;15.70;99.90;;;;;;5067456;28;20481;-80
2021/08/21 05:57:43;;;;;;;25.85;18.05;;;15.70;99.90;;;;;;5067058;28;20044;-80
2021/08/21 06:00:09;;;;;;;28.98;17.67;;;15.80;99.90;;;;;;5065368;28;20035;-80
2021/08/21 06:02:35;;;;;;;31.35;18.35;;;15.80;99.90;;;;;;5061654;27;20037;-80
2021/08/21 06:05:00;;;;;;;27.55;18.15;;;15.90;99.90;;;;;;5063356;27;20040;-80
2021/08/21 06:07:28;;;;;;;31.15;18.48;;;16.00;99.90;;;;;;5063052;27;20468;-80
2021/08/21 06:09:54;;;;;;;23.35;16.00;;;16.10;99.90;;;;;;5061111;28;20184;-79
2021/08/21 06:12:19;;;;;;;30.27;18.48;;;16.10;99.90;;;;;;5069413;28;20056;-79
2021/08/21 06:14:45;;;;;;;28.55;16.83;;;16.20;99.90;;;;;;5070445;28;20028;-80
2021/08/21 06:17:11;;;;;;;26.75;17.85;;;16.30;99.90;;;;;;5068886;27;20050;-80
2021/08/21 06:19:37;;;;;;;28.98;18.65;;;16.40;99.90;;;;;;5050534;28;20017;-81
2021/08/21 06:22:04;;;;;;;29.23;18.25;;;16.40;99.90;;;;;;5067892;28;20089;-81
2021/08/21 06:24:29;;;;;;;26.42;17.85;;;16.40;99.90;;;;;;5049371;28;20029;-81
2021/08/21 06:26:55;;;;;;;30.42;19.80;;;16.50;99.90;;;;;;5068352;28;20054;-79
2021/08/21 06:29:21;;;;;;;24.67;18.38;;;16.50;99.90;;;;;;5068686;28;20064;-79
2021/08/21 06:31:46;;;;;;;31.25;19.98;;;16.60;99.90;;;;;;5133903;27;20040;-79
2021/08/21 06:34:12;;;;;;;27.92;19.85;;;16.70;99.90;;;;;;5159256;27;20057;-80
2021/08/21 06:36:37;;;;;;;31.52;19.27;;;16.80;99.90;;;;;;5112264;27;20049;-79
2021/08/21 06:39:04;;;;;;;29.05;19.48;;;17.10;99.90;;;;;;5053577;28;20073;-80
2021/08/21 06:41:30;;;;;;;27.45;18.38;;;17.40;99.90;;;;;;5053690;28;20032;-79
2021/08/21 06:43:55;;;;;;;26.17;18.63;;;17.70;99.90;;;;;;5070181;28;20036;-79
2021/08/21 06:46:21;;;;;;;25.65;18.60;;;17.90;99.90;;;;;;5068023;28;20335;-79
2021/08/21 06:48:47;;;;;;;24.50;17.50;;;18.20;99.90;;;;;;5068237;28;20108;-80
2021/08/21 06:51:13;;;;;;;25.45;18.38;;;18.30;99.90;;;;;;5068586;28;20445;-79
2021/08/21 06:53:40;;;;;;;20.23;16.10;;;18.40;99.90;;;;;;5068703;28;20056;-79
2021/08/21 06:56:06;;;;;;;22.60;16.70;;;18.40;99.90;;;;;;5050473;28;20047;-79
2021/08/21 06:58:32;;;;;;;21.92;15.88;;;18.50;99.90;;;;;;5069296;28;20028;-79
2021/08/21 07:00:58;;;;;;;17.27;13.57;;;18.60;99.90;;;;;;5070766;28;20109;-79
2021/08/21 07:03:24;;;;;;;16.13;12.45;;;18.80;99.90;;;;;;5070633;28;20021;-80
2021/08/21 07:05:50;;;;;;;16.02;11.68;;;18.80;99.90;;;;;;5053644;28;20028;-79
2021/08/21 07:08:16;;;;;;;17.40;12.82;;;18.80;99.90;;;;;;5071526;28;20040;-79
2021/08/21 07:10:41;;;;;;;15.90;11.90;;;19.00;99.90;;;;;;5071412;28;20032;-79
2021/08/21 07:13:07;;;;;;;13.63;10.52;;;19.10;99.90;;;;;;5071214;28;20493;-79
2021/08/21 07:15:33;;;;;;;13.88;10.27;;;19.20;99.90;;;;;;5052940;28;20060;-79
2021/08/21 07:17:59;;;;;;;14.65;11.25;;;19.30;99.90;;;;;;5071753;27;20044;-79
2021/08/21 07:20:25;;;;;;;13.63;11.40;;;19.30;99.90;;;;;;5071279;28;20029;-79
2021/08/21 07:22:51;;;;;;;13.18;10.48;;;19.50;99.90;;;;;;5053448;28;20033;-79
2021/08/21 07:25:16;;;;;;;11.13;8.90;;;19.40;99.90;;;;;;5053285;28;20523;-79
2021/08/21 07:27:42;;;;;;;11.32;9.02;;;19.50;99.90;;;;;;5071283;28;20056;-79
2021/08/21 07:30:09;;;;;;;12.15;9.30;;;19.60;99.90;;;;;;5053117;28;20370;-79
2021/08/21 07:32:35;;;;;;;11.77;9.20;;;19.70;99.90;;;;;;5053728;28;20115;-79
2021/08/21 07:35:03;;;;;;;9.40;7.88;;;19.70;99.90;;;;;;5053135;28;20119;-79
2021/08/21 07:37:30;;;;;;;12.25;8.70;;;19.70;99.90;;;;;;5070939;28;20076;-79
2021/08/21 07:39:55;;;;;;;13.57;8.38;;;19.70;99.90;;;;;;5071027;28;20397;-79
2021/08/21 07:42:21;;;;;;;10.30;7.35;;;19.90;99.90;;;;;;5071016;28;20025;-79
2021/08/21 07:44:47;;;;;;;10.85;7.78;;;20.20;99.90;;;;;;5053041;28;20032;-79
2021/08/21 07:47:13;;;;;;;10.63;8.57;;;20.40;99.90;;;;;;5053386;28;20033;-79
2021/08/21 07:49:39;;;;;;;9.73;7.20;;;20.60;99.90;;;;;;5070854;28;20393;-79
2021/08/21 07:52:05;;;;;;;10.05;8.05;;;20.90;99.90;;;;;;5070897;28;20031;-79
2021/08/21 07:54:30;;;;;;;12.55;8.73;;;20.90;99.90;;;;;;5052904;28;20046;-79
2021/08/21 07:56:56;;;;;;;12.05;8.05;;;20.80;99.90;;;;;;5053197;27;20041;-79
2021/08/21 07:59:22;;;;;;;9.25;8.30;;;21.10;99.90;;;;;;5052764;28;20020;-79
2021/08/21 08:01:47;;;;;;;8.05;7.07;;;21.20;98.50;;;;;;5070705;28;20070;-79
2021/08/21 08:04:13;;;;;;;8.38;6.78;;;21.20;95.00;;;;;;5070496;28;20029;-79
2021/08/21 08:06:39;;;;;;;8.35;6.88;;;21.10;94.60;;;;;;5052713;28;20081;-79
2021/08/21 08:09:05;;;;;;;8.25;7.38;;;20.80;90.20;;;;;;5070531;28;20044;-79
2021/08/21 08:11:30;;;;;;;9.18;6.80;;;20.80;91.10;;;;;;5070740;28;20558;-79
2021/08/21 08:13:56;;;;;;;8.02;6.80;;;21.00;95.70;;;;;;5070573;28;20025;-79
2021/08/21 08:16:21;;;;;;;7.55;6.78;;;21.10;96.30;;;;;;5070509;28;20119;-79
2021/08/21 08:18:47;;;;;;;11.65;8.05;;;21.00;92.50;;;;;;5070798;27;20041;-79
2021/08/21 08:21:15;;;;;;;8.27;7.30;;;20.80;92.10;;;;;;5070321;28;20465;-79
2021/08/21 08:23:41;;;;;;;12.13;7.07;;;20.80;92.80;;;;;;5052407;28;20028;-79
2021/08/21 08:26:07;;;;;;;9.20;7.00;;;20.90;93.80;;;;;;5052346;28;20039;-79
2021/08/21 08:28:32;;;;;;;8.10;6.60;;;21.20;90.50;;;;;;5069360;28;20033;-79
2021/08/21 08:30:58;;;;;;;7.63;6.78;;;21.50;91.90;;;;;;5070161;28;20036;-79
2021/08/21 08:33:23;;;;;;;7.05;6.35;;;21.70;83.90;;;;;;5069726;28;20398;-79
2021/08/21 08:35:51;;;;;;;7.28;5.80;;;21.80;83.40;;;;;;5052573;28;20037;-79
2021/08/21 08:38:18;;;;;;;7.38;5.88;;;21.80;87.50;;;;;;5070086;28;20108;-79
2021/08/21 08:40:44;;;;;;;8.30;6.82;;;21.50;87.60;;;;;;5052113;28;20108;-79
2021/08/21 08:43:09;;;;;;;9.32;7.22;;;21.10;87.90;;;;;;5052678;28;20127;-79
2021/08/21 08:45:35;;;;;;;8.00;6.80;;;20.70;91.30;;;;;;5069865;28;20528;-80
2021/08/21 08:48:02;;;;;;;7.80;6.93;;;20.60;87.00;;;;;;5052121;28;20040;-79
2021/08/21 08:50:28;;;;;;;8.55;7.63;;;20.30;89.70;;;;;;5069873;28;20099;-79
2021/08/21 08:52:55;;;;;;;7.75;6.97;;;20.40;89.90;;;;;;5069933;28;20024;-79
2021/08/21 08:55:22;;;;;;;7.50;6.75;;;20.70;91.00;;;;;;5069587;28;20043;-79
2021/08/21 08:57:50;;;;;;;8.85;7.57;;;20.80;89.40;;;;;;5069776;28;20104;-79
2021/08/21 09:00:22;;;;;;;10.07;6.78;;;20.90;83.70;;;;;;5051854;28;20077;-79
2021/08/21 09:02:53;;;;;;;7.57;6.87;;;21.20;85.40;;;;;;5069780;28;20064;-79
2021/08/21 09:05:21;;;;;;;9.07;6.57;;;21.60;88.30;;;;;;5051810;28;20267;-79
2021/08/21 09:07:51;;;;;;;8.30;6.88;;;21.60;77.30;;;;;;5052139;28;20029;-79
2021/08/21 09:10:21;;;;;;;7.18;6.47;;;21.90;84.30;;;;;;5052226;28;20458;-79
2021/08/21 09:12:49;;;;;;;8.75;6.50;;;21.70;75.10;;;;;;5069700;28;20497;-79
2021/08/21 09:15:24;;;;;;;8.02;7.20;;;21.50;80.90;;;;;;5051692;28;20027;-79
2021/08/21 09:18:06;;;;;;;9.43;6.63;;;21.40;83.40;;;;;;5051603;27;20053;-79
2021/08/21 09:20:34;;;;;;;8.75;6.32;;;21.30;85.80;;;;;;5069607;28;20024;-79
2021/08/21 09:23:27;;;;;;;7.78;6.97;;;21.60;87.80;;;;;;5051692;28;20135;-79
2021/08/21 09:25:54;;;;;;;8.30;7.28;;;21.60;84.70;;;;;;5068699;28;20040;-79
2021/08/21 09:28:26;;;;;;;8.40;6.50;;;21.80;78.50;;;;;;5051557;28;20029;-79
2021/08/21 09:31:14;;;;;;;7.13;6.43;;;22.00;77.70;;;;;;5069570;28;20107;-79
2021/08/21 09:33:49;;;;;;;7.68;6.85;;;22.30;76.10;;;;;;5051519;28;20043;-79
2021/08/21 09:36:25;;;;;;;7.18;6.30;;;22.50;68.60;;;;;;5069241;28;20068;-79
2021/08/21 09:38:51;;;;;;;7.85;6.70;;;22.90;74.90;;;;;;5069845;28;20061;-79
2021/08/21 09:41:17;;;;;;;9.73;6.72;;;23.10;69.90;;;;;;5054952;28;20055;-79
2021/08/21 09:43:42;;;;;;;7.30;6.45;;;22.70;72.40;;;;;;5072983;28;20032;-79
2021/08/21 09:46:19;;;;;;;7.47;6.75;;;22.20;76.60;;;;;;5054870;28;20032;-79
2021/08/21 09:49:10;;;;;;;9.93;7.57;;;21.90;83.10;;;;;;5072894;28;20032;-79
2021/08/21 09:51:46;;;;;;;9.30;7.03;;;21.60;81.60;;;;;;5072828;28;20438;-79
2021/08/21 09:54:15;;;;;;;8.18;6.93;;;21.30;82.90;;;;;;5054735;28;20039;-79
2021/08/21 09:56:44;;;;;;;7.43;6.25;;;21.40;82.10;;;;;;5072517;28;20128;-79
2021/08/21 09:59:10;;;;;;;8.73;6.57;;;21.80;83.40;;;;;;5054688;28;20048;-79
2021/08/21 10:01:36;;;;;;;8.20;6.60;;;21.80;79.20;;;;;;5072493;28;20072;-79
2021/08/21 10:04:04;;;;;;;7.43;6.65;;;21.90;75.50;;;;;;5054667;28;20033;-79
2021/08/21 10:06:30;;;;;;;7.85;6.78;;;21.90;75.60;;;;;;5072461;28;20060;-79
2021/08/21 10:09:02;;;;;;;6.90;6.30;;;22.10;74.50;;;;;;5072467;28;20052;-79
2021/08/21 10:11:28;;;;;;;7.80;7.00;;;22.20;72.00;;;;;;5054480;28;20446;-79
2021/08/21 10:13:55;;;;;;;6.65;5.72;;;22.40;74.50;;;;;;5054520;28;20081;-79
2021/08/21 10:16:22;;;;;;;6.72;6.13;;;22.40;72.80;;;;;;5053980;28;20071;-79
2021/08/21 10:18:48;;;;;;;7.38;5.75;;;22.50;69.90;;;;;;5054243;28;20039;-80
2021/08/21 10:21:16;;;;;;;7.75;6.00;;;22.60;66.10;;;;;;5054208;28;20036;-79
2021/08/21 10:23:44;;;;;;;5.93;4.88;;;22.70;66.20;;;;;;5054781;27;20063;-79
2021/08/21 10:26:27;;;;;;;5.55;5.10;;;23.00;64.40;;;;;;5072100;28;20089;-79
2021/08/21 10:28:55;;;;;;;5.63;5.05;;;23.10;61.20;;;;;;5054261;28;20123;-79
2021/08/21 10:31:39;;;;;;;5.22;4.78;;;23.20;58.00;;;;;;5072105;28;20096;-79
2021/08/21 10:34:07;;;;;;;5.95;5.47;;;23.10;56.70;;;;;;5072204;28;20057;-79
2021/08/21 10:36:54;;;;;;;6.72;5.30;;;23.20;63.20;;;;;;5071974;28;20040;-79
2021/08/21 10:39:24;;;;;;;5.97;5.38;;;23.50;64.50;;;;;;5071917;28;20085;-79
2021/08/21 10:41:54;;;;;;;5.85;5.25;;;23.40;59.00;;;;;;5054551;28;20039;-79
2021/08/21 10:44:43;;;;;;;5.80;5.00;;;23.50;63.50;;;;;;5054527;27;20032;-79
2021/08/21 10:47:33;;;;;;;5.63;5.20;;;23.10;60.90;;;;;;5071937;28;20395;-79
2021/08/21 10:50:29;;;;;;;5.45;4.78;;;23.10;61.00;;;;;;5071684;28;20073;-79
2021/08/21 10:52:56;;;;;;;5.40;4.90;;;23.20;59.30;;;;;;5053362;28;20478;-79
2021/08/21 10:55:23;;;;;;;4.85;4.38;;;23.20;57.30;;;;;;5071500;28;20081;-79
2021/08/21 10:58:03;;;;;;;5.70;4.95;;;23.10;56.20;;;;;;5071614;28;20076;-79
2021/08/21 11:00:38;;;;;;;5.65;5.15;;;23.30;59.80;;;;;;5053705;28;20024;-79
2021/08/21 11:03:07;;;;;;;4.70;4.30;;;23.70;60.20;;;;;;5053695;28;20081;-79
2021/08/21 11:05:58;;;;;;;8.27;5.20;;;23.70;59.40;;;;;;5071460;28;20056;-79
2021/08/21 11:08:27;;;;;;;5.53;5.03;;;23.50;58.10;;;;;;5053700;28;20123;-79
2021/08/21 11:11:29;;;;;;;6.32;5.38;;;23.30;57.80;;;;;;5053575;28;20028;-79
2021/08/21 11:14:22;;;;;;;5.53;5.03;;;22.60;59.90;;;;;;5071537;28;20056;-79
2021/08/21 11:16:59;;;;;;;5.70;5.10;;;22.40;64.00;;;;;;5070963;28;20127;-79
2021/08/21 11:19:27;;;;;;;7.10;5.45;;;22.20;65.80;;;;;;5071278;28;20029;-79
2021/08/21 11:22:19;;;;;;;5.47;4.35;;;22.10;66.70;;;;;;5069488;28;20041;-79
2021/08/21 11:24:51;;;;;;;4.88;4.25;;;22.40;63.80;;;;;;5051167;28;20060;-79
2021/08/21 11:27:29;;;;;;;9.70;4.32;;;22.60;60.90;;;;;;5051681;28;20037;-79
2021/08/21 11:32:51;;;;;;;4.45;3.78;;;22.70;58.90;;;;;;5071434;28;20039;-79
2021/08/21 11:35:26;;;;;;;4.05;3.75;;;22.60;59.50;;;;;;5052167;28;20430;-79
2021/08/21 11:37:58;;;;;;;4.57;4.15;;;22.30;61.80;;;;;;5069481;28;20116;-79
2021/08/21 11:40:47;;;;;;;;;;;22.60;67.10;;;;;;5070923;28;20033;-79
2021/08/21 11:43:14;;;;;;;6.13;4.05;;;23.00;64.60;;;;;;5073197;28;19956;-79
2021/08/21 11:45:41;;;;;;;11.23;4.25;;;23.40;63.20;;;;;;5070951;28;20039;-79
2021/08/21 11:48:07;;;;;;;5.65;4.25;;;23.60;61.40;;;;;;5052992;28;20493;-79
2021/08/21 11:50:41;;;;;;;3.75;3.30;;;23.80;57.60;;;;;;5052686;28;20043;-79
2021/08/21 11:53:39;;;;;;;3.47;3.17;;;24.20;58.90;;;;;;5050898;28;20548;-79
2021/08/21 11:56:05;;;;;;;6.97;4.80;;;24.40;55.00;;;;;;5068971;28;20489;-79
2021/08/21 11:58:33;;;;;;;5.13;4.22;;;24.50;55.10;;;;;;5068571;28;20037;-79
2021/08/21 12:01:09;;;;;;;4.38;3.97;;;24.70;55.20;;;;;;5050609;28;20032;-79
2021/08/21 12:06:36;;;;;;;5.47;4.88;;;24.70;54.90;;;;;;5068959;28;20089;-79
2021/08/21 12:09:13;;;;;;;3.10;2.90;;;24.80;53.10;;;;;;5052718;28;20061;-79
2021/08/21 12:11:44;;;;;;;4.20;2.78;;;24.60;51.10;;;;;;5070114;28;20036;-80
2021/08/21 12:14:11;;;;;;;4.40;4.00;;;24.50;51.00;;;;;;5051745;28;20124;-79
2021/08/21 12:16:37;;;;;;;4.40;3.67;;;24.40;54.40;;;;;;5045731;27;20390;-81
2021/08/21 12:19:04;;;;;;;3.85;3.45;;;24.10;55.80;;;;;;5048888;28;20036;-79
2021/08/21 12:21:30;;;;;;;3.90;3.60;;;23.70;55.80;;;;;;5053895;28;20040;-81
2021/08/21 12:23:56;;;;;;;3.85;3.33;;;23.30;56.80;;;;;;5048861;28;20033;-80
2021/08/21 12:26:36;;;;;;;6.38;3.95;;;23.10;58.50;;;;;;5065810;28;20033;-80
2021/08/21 12:29:04;;;;;;;4.32;3.55;;;23.10;58.70;;;;;;5048919;28;20032;-80
2021/08/21 12:31:38;;;;;;;3.80;3.42;;;23.40;60.60;;;;;;5040355;27;20033;-80
2021/08/21 12:34:04;;;;;;;4.45;3.60;;;23.70;60.00;;;;;;5062795;28;20029;-79
2021/08/21 12:36:31;;;;;;;4.32;3.92;;;23.60;59.70;;;;;;5048571;28;20045;-79
2021/08/21 12:39:04;;;;;;;7.45;4.25;;;23.60;60.80;;;;;;5049834;28;20031;-81
2021/08/21 12:41:30;;;;;;;4.38;3.90;;;23.40;59.50;;;;;;5066884;28;20044;-79
2021/08/21 12:44:07;;;;;;;6.03;3.80;;;23.10;61.50;;;;;;5048549;28;20025;-80
2021/08/21 12:46:35;;;;;;;5.50;3.58;;;23.00;63.80;;;;;;5060415;28;20025;-79
2021/08/21 12:49:08;;;;;;;4.20;3.55;;;22.90;64.30;;;;;;5067659;28;20031;-80